Time;durP1;ratioP1;P1;durP2;ratioP2;P2;SDS_P1;SDS_P2;PMS_P1;PMS_P2;Temp;Humidity;BMP_temperature;BMP_pressure;BME280_temperature;BME280_humidity;BME280_pressure;Samples;Min_cycle;Max_cycle;Signal;HPM_P1;HPM_P2
2021/03/22 00:00:24;;;;;;;1.65;1.20;;;;;;;-140.79;100.00;63287.88;5049999;28;20494;-74
2021/03/22 00:02:49;;;;;;;1.77;1.20;;;;;;;-140.79;100.00;63287.88;5050159;28;20463;-75
2021/03/22 00:05:15;;;;;;;2.03;1.27;;;;;;;-140.79;100.00;63287.88;5049243;28;20088;-74
2021/03/22 00:07:40;;;;;;;1.58;1.20;;;;;;;-140.79;100.00;63287.88;5041038;28;20040;-74
2021/03/22 00:10:07;;;;;;;2.33;1.33;;;;;;;-140.79;100.00;63287.88;5028947;28;20301;-74
2021/03/22 00:12:32;;;;;;;2.58;1.45;;;;;;;-140.79;100.00;63287.88;5029053;28;20018;-74
2021/03/22 00:14:58;;;;;;;2.22;1.50;;;;;;;-140.79;100.00;63287.88;5030249;28;20033;-74
2021/03/22 00:17:23;;;;;;;1.70;1.30;;;;;;;-140.79;100.00;63287.88;5029990;28;20026;-74
2021/03/22 00:19:48;;;;;;;2.22;1.50;;;;;;;-140.79;100.00;63287.88;5028951;28;20022;-74
2021/03/22 00:22:14;;;;;;;2.00;1.40;;;;;;;-140.79;100.00;63287.88;5030555;28;20413;-74
2021/03/22 00:24:39;;;;;;;2.03;1.30;;;;;;;-140.79;100.00;63287.88;5030250;28;20033;-74
2021/03/22 00:27:05;;;;;;;2.17;1.35;;;;;;;-140.79;100.00;63287.88;5030388;28;20032;-75
2021/03/22 00:29:31;;;;;;;2.03;1.30;;;;;;;-140.79;100.00;63287.88;5040717;28;20017;-74
2021/03/22 00:31:56;;;;;;;1.90;1.13;;;;;;;-140.79;100.00;63287.88;5049717;28;20088;-74
2021/03/22 00:34:22;;;;;;;2.38;1.30;;;;;;;-140.79;100.00;63287.88;5049874;28;20036;-74
2021/03/22 00:36:47;;;;;;;2.65;1.35;;;;;;;-140.79;100.00;63287.88;5049846;28;20045;-74
2021/03/22 00:39:13;;;;;;;1.80;1.23;;;;;;;-140.79;100.00;63287.88;5049919;28;20025;-75
2021/03/22 00:41:39;;;;;;;2.00;1.10;;;;;;;-140.79;100.00;63287.88;5050272;28;20021;-74
2021/03/22 00:44:04;;;;;;;1.92;1.10;;;;;;;-140.79;100.00;63287.88;5050010;28;20024;-75
2021/03/22 00:46:30;;;;;;;1.70;1.20;;;;;;;-140.79;100.00;63287.88;5049677;28;20036;-75
2021/03/22 00:48:55;;;;;;;1.55;1.10;;;;;;;-140.79;100.00;63287.88;5049957;28;20096;-75
2021/03/22 00:51:21;;;;;;;1.73;1.20;;;;;;;-140.79;100.00;63287.88;5049602;28;20029;-74
2021/03/22 00:53:46;;;;;;;2.08;1.30;;;;;;;-140.79;100.00;63287.88;5053602;28;20032;-74
2021/03/22 00:56:12;;;;;;;1.60;1.20;;;;;;;-140.79;100.00;63287.88;5052624;28;20028;-74
2021/03/22 00:58:39;;;;;;;2.53;1.15;;;;;;;-140.79;100.00;63287.88;5053586;28;20024;-74
2021/03/22 01:03:40;;;;;;;2.05;1.27;;;;;;;-140.79;100.00;63287.88;4878322;23;20456;-72
2021/03/22 01:06:06;;;;;;;1.83;1.10;;;;;;;-140.79;100.00;63287.88;4955089;28;20039;-72
2021/03/22 01:08:35;;;;;;;2.20;1.30;;;;;;;-140.79;100.00;63287.88;4972416;28;20650;-72
2021/03/22 01:11:05;;;;;;;1.58;1.05;;;;;;;-140.79;100.00;63287.88;4955276;28;20022;-72
2021/03/22 01:13:36;;;;;;;1.60;1.25;;;;;;;-140.79;100.00;63287.88;4971022;28;20036;-72
2021/03/22 01:16:01;;;;;;;;;;;;;;;-140.79;100.00;63287.88;4972688;28;20547;-72
2021/03/22 01:18:33;;;;;;;1.85;1.08;;;;;;;-140.79;100.00;63287.88;4972737;28;19918;-72
2021/03/22 01:21:07;;;;;;;2.08;1.23;;;;;;;-140.79;100.00;63287.88;4972593;28;20034;-71
2021/03/22 01:23:33;;;;;;;1.85;1.00;;;;;;;-140.79;100.00;63287.88;4971621;28;20031;-71
2021/03/22 01:25:58;;;;;;;1.42;1.00;;;;;;;-140.79;100.00;63287.88;4954703;28;20030;-72
2021/03/22 01:28:23;;;;;;;1.42;0.98;;;;;;;-140.79;100.00;63287.88;4954636;28;20022;-71
2021/03/22 01:30:55;;;;;;;1.63;0.98;;;;;;;-140.79;100.00;63287.88;4971841;28;20034;-73
2021/03/22 01:33:24;;;;;;;1.20;0.80;;;;;;;-140.79;100.00;63287.88;4971731;28;20033;-73
2021/03/22 01:35:49;;;;;;;1.77;1.20;;;;;;;-140.79;100.00;63287.88;4954657;28;20026;-73
2021/03/22 01:38:15;;;;;;;1.65;1.02;;;;;;;-140.79;100.00;63287.88;4954674;28;20026;-72
2021/03/22 01:40:53;;;;;;;1.40;1.00;;;;;;;-140.79;100.00;63287.88;4953959;28;20514;-72
2021/03/22 01:43:37;;;;;;;1.17;0.85;;;;;;;-140.79;100.00;63287.88;4971167;28;20491;-73
2021/03/22 01:46:02;;;;;;;1.92;1.13;;;;;;;-140.79;100.00;63287.88;4970184;28;20027;-72
2021/03/22 01:48:27;;;;;;;1.63;1.00;;;;;;;-140.79;100.00;63287.88;4954442;28;20022;-72
2021/03/22 01:50:53;;;;;;;1.60;1.00;;;;;;;-140.79;100.00;63287.88;4954260;28;20019;-72
2021/03/22 01:53:18;;;;;;;1.58;0.90;;;;;;;-140.79;100.00;63287.88;4953764;28;20779;-72
2021/03/22 01:55:44;;;;;;;1.63;0.90;;;;;;;-140.79;100.00;63287.88;4970186;28;20030;-73
2021/03/22 01:58:09;;;;;;;1.00;0.63;;;;;;;-140.79;100.00;63287.88;4971574;28;20493;-72
2021/03/22 02:00:36;;;;;;;1.60;0.90;;;;;;;-140.79;100.00;63287.88;4971461;28;20019;-72
2021/03/22 02:03:10;;;;;;;1.48;0.95;;;;;;;-140.79;100.00;63287.88;4953658;28;20087;-71
2021/03/22 02:05:37;;;;;;;1.33;0.80;;;;;;;-140.79;100.00;63287.88;4954796;28;20019;-71
2021/03/22 02:08:14;;;;;;;1.60;1.10;;;;;;;-140.79;100.00;63287.88;4970527;28;20034;-72
2021/03/22 02:10:40;;;;;;;1.23;0.80;;;;;;;-140.79;100.00;63287.88;4970856;28;20030;-71
2021/03/22 02:13:06;;;;;;;1.58;1.15;;;;;;;-140.79;100.00;63287.88;4971710;28;20486;-71
2021/03/22 02:15:31;;;;;;;1.40;0.90;;;;;;;-140.79;100.00;63287.88;4971180;28;20042;-72
2021/03/22 02:18:15;;;;;;;1.10;0.80;;;;;;;-140.79;100.00;63287.88;4954052;28;20026;-71
2021/03/22 02:20:48;;;;;;;1.63;1.10;;;;;;;-140.79;100.00;63287.88;4971023;28;20041;-71
2021/03/22 02:23:31;;;;;;;1.50;0.90;;;;;;;-140.79;100.00;63287.88;4953821;28;20033;-72
2021/03/22 02:26:01;;;;;;;1.27;1.00;;;;;;;-140.79;100.00;63287.88;4971251;28;20533;-73
2021/03/22 02:28:45;;;;;;;;;;;;;;;-140.79;100.00;63287.88;4971380;28;20121;-72
2021/03/22 02:31:31;;;;;;;1.70;1.10;;;;;;;-140.79;100.00;63287.88;4970884;28;19910;-72
2021/03/22 02:34:17;;;;;;;0.80;0.60;;;;;;;-140.79;100.00;63287.88;4953913;28;20065;-72
2021/03/22 02:37:01;;;;;;;1.30;0.90;;;;;;;-140.79;100.00;63287.88;4969691;28;20570;-72
2021/03/22 02:39:35;;;;;;;1.08;0.70;;;;;;;-140.79;100.00;63287.88;4971063;28;20371;-72
2021/03/22 02:42:01;;;;;;;1.35;0.70;;;;;;;-140.79;100.00;63287.88;4954160;28;20113;-71
2021/03/22 02:44:31;;;;;;;1.15;0.70;;;;;;;-140.79;100.00;63287.88;4953746;28;20041;-72
2021/03/22 02:47:05;;;;;;;1.23;0.75;;;;;;;-140.79;100.00;63287.88;4971055;28;20034;-72
2021/03/22 02:49:32;;;;;;;1.30;0.75;;;;;;;-140.79;100.00;63287.88;4969405;28;20118;-73
2021/03/22 02:52:24;;;;;;;0.88;0.52;;;;;;;-140.79;100.00;63287.88;4969514;28;20026;-72
2021/03/22 02:54:55;;;;;;;1.10;0.70;;;;;;;-140.79;100.00;63287.88;4969691;28;20137;-72
2021/03/22 02:57:34;;;;;;;1.70;0.80;;;;;;;-140.79;100.00;63287.88;4953181;28;20463;-72
2021/03/22 03:00:01;;;;;;;1.67;0.85;;;;;;;-140.79;100.00;63287.88;4953059;28;20034;-72
2021/03/22 03:02:28;;;;;;;1.35;0.90;;;;;;;-140.79;100.00;63287.88;4969294;28;20050;-72
2021/03/22 03:04:53;;;;;;;1.27;0.60;;;;;;;-140.79;100.00;63287.88;4952885;28;20077;-72
2021/03/22 03:07:25;;;;;;;1.20;0.70;;;;;;;-140.79;100.00;63287.88;4953059;28;20466;-71
2021/03/22 03:09:50;;;;;;;1.15;0.75;;;;;;;-140.79;100.00;63287.88;4952998;28;20041;-71
2021/03/22 03:12:19;;;;;;;1.88;0.80;;;;;;;-140.79;100.00;63287.88;4968968;28;20026;-71
2021/03/22 03:14:46;;;;;;;1.10;0.63;;;;;;;-140.79;100.00;63287.88;4969688;28;20035;-73
2021/03/22 03:17:12;;;;;;;1.05;0.70;;;;;;;-140.79;100.00;63287.88;4968550;28;20586;-73
2021/03/22 03:19:37;;;;;;;1.33;0.85;;;;;;;-140.79;100.00;63287.88;4970101;28;20027;-73
2021/03/22 03:22:03;;;;;;;0.98;0.60;;;;;;;-140.79;100.00;63287.88;4936731;28;20412;-72
2021/03/22 03:24:29;;;;;;;1.25;0.65;;;;;;;-140.79;100.00;63287.88;4970188;28;20026;-73
2021/03/22 03:26:54;;;;;;;0.98;0.60;;;;;;;-140.79;100.00;63287.88;4969881;28;20041;-74
2021/03/22 03:29:19;;;;;;;0.90;0.50;;;;;;;-140.79;100.00;63287.88;4969935;28;20030;-73
2021/03/22 03:31:45;;;;;;;1.00;0.60;;;;;;;-140.79;100.00;63287.88;4969907;28;20046;-73
2021/03/22 03:34:10;;;;;;;1.05;0.63;;;;;;;-140.79;100.00;63287.88;4969983;28;20066;-73
2021/03/22 03:36:36;;;;;;;1.20;0.73;;;;;;;-140.79;100.00;63287.88;4969935;28;20039;-72
2021/03/22 03:39:05;;;;;;;1.13;0.70;;;;;;;-140.79;100.00;63287.88;4969687;28;20031;-73
2021/03/22 03:41:31;;;;;;;0.80;0.60;;;;;;;-140.79;100.00;63287.88;4969468;28;20031;-71
2021/03/22 03:43:56;;;;;;;0.80;0.60;;;;;;;-140.79;100.00;63287.88;4970012;28;20038;-71
2021/03/22 03:46:22;;;;;;;1.00;0.60;;;;;;;-140.79;100.00;63287.88;4969751;28;20030;-72
2021/03/22 03:48:47;;;;;;;1.05;0.65;;;;;;;-140.79;100.00;63287.88;4952296;28;20026;-73
2021/03/22 03:51:13;;;;;;;1.50;0.60;;;;;;;-140.79;100.00;63287.88;4968706;28;20049;-71
2021/03/22 03:53:38;;;;;;;0.75;0.52;;;;;;;-140.79;100.00;63287.88;4969730;28;20039;-71
2021/03/22 03:56:04;;;;;;;1.10;0.68;;;;;;;-140.79;100.00;63287.88;4969306;28;20258;-71
2021/03/22 03:58:29;;;;;;;0.80;0.50;;;;;;;-140.79;100.00;63287.88;4969656;28;20027;-71
2021/03/22 04:00:55;;;;;;;0.98;0.60;;;;;;;-140.79;100.00;63287.88;4969799;28;20026;-71
2021/03/22 04:03:27;;;;;;;1.40;0.70;;;;;;;-140.79;100.00;63287.88;4969527;28;20090;-72
2021/03/22 04:05:59;;;;;;;1.17;0.80;;;;;;;-140.79;100.00;63287.88;4969458;28;20035;-72
2021/03/22 04:08:25;;;;;;;1.08;0.70;;;;;;;-140.79;100.00;63287.88;4968528;28;20030;-72
2021/03/22 04:10:51;;;;;;;1.38;0.43;;;;;;;-140.79;100.00;63287.88;4968095;28;20408;-72
2021/03/22 04:13:17;;;;;;;0.70;0.50;;;;;;;-140.79;100.00;63287.88;4969877;28;20046;-71
2021/03/22 04:15:42;;;;;;;2.78;0.60;;;;;;;-140.79;100.00;63287.88;4966889;28;20513;-72
2021/03/22 04:18:07;;;;;;;0.93;0.50;;;;;;;-140.79;100.00;63287.88;4950158;29;20053;-70
2021/03/22 04:20:33;;;;;;;0.98;0.63;;;;;;;-140.79;100.00;63287.88;4950209;29;20031;-71
2021/03/22 04:22:58;;;;;;;1.63;0.65;;;;;;;-140.79;100.00;63287.88;4950398;29;20027;-71
2021/03/22 04:25:24;;;;;;;0.80;0.50;;;;;;;-140.79;100.00;63287.88;4950091;29;20027;-71
2021/03/22 04:27:49;;;;;;;0.93;0.50;;;;;;;-140.79;100.00;63287.88;4952640;28;20035;-71
2021/03/22 04:30:15;;;;;;;0.95;0.40;;;;;;;-140.79;100.00;63287.88;4936968;29;20393;-71
2021/03/22 04:32:41;;;;;;;0.73;0.50;;;;;;;-140.79;100.00;63287.88;4953525;29;20109;-71
2021/03/22 04:35:07;;;;;;;0.70;0.50;;;;;;;-140.79;100.00;63287.88;4950324;28;20818;-71
2021/03/22 04:37:32;;;;;;;0.68;0.40;;;;;;;-140.79;100.00;63287.88;4972967;28;20058;-72
2021/03/22 04:39:58;;;;;;;1.10;0.60;;;;;;;-140.79;100.00;63287.88;4972538;28;20495;-73
2021/03/22 04:42:23;;;;;;;0.80;0.50;;;;;;;-140.79;100.00;63287.88;4969109;28;20408;-74
2021/03/22 04:44:49;;;;;;;0.90;0.52;;;;;;;-140.79;100.00;63287.88;4973298;28;20447;-72
2021/03/22 04:47:14;;;;;;;1.00;0.50;;;;;;;-140.79;100.00;63287.88;4955987;28;20035;-69
2021/03/22 04:49:40;;;;;;;0.88;0.45;;;;;;;-140.79;100.00;63287.88;4986545;28;20383;-71
2021/03/22 04:52:06;;;;;;;1.20;0.50;;;;;;;-140.79;100.00;63287.88;4989062;28;20042;-71
2021/03/22 04:54:31;;;;;;;0.98;0.57;;;;;;;-140.79;100.00;63287.88;4963548;28;20838;-72
2021/03/22 04:57:09;;;;;;;1.67;0.55;;;;;;;-140.79;100.00;63287.88;4982122;28;20033;-72
2021/03/22 04:59:34;;;;;;;0.88;0.50;;;;;;;-140.79;100.00;63287.88;4966128;28;20035;-74
2021/03/22 05:02:00;;;;;;;0.57;0.40;;;;;;;-140.79;100.00;63287.88;4990160;28;20030;-74
2021/03/22 05:04:25;;;;;;;0.50;0.40;;;;;;;-140.79;100.00;63287.88;4978860;28;20051;-74
2021/03/22 05:06:51;;;;;;;0.55;0.40;;;;;;;-140.79;100.00;63287.88;4987529;28;20029;-73
2021/03/22 05:09:16;;;;;;;0.60;0.30;;;;;;;-140.79;100.00;63287.88;4963934;28;20014;-74
2021/03/22 05:11:42;;;;;;;1.10;0.47;;;;;;;-140.79;100.00;63287.88;4968142;28;20031;-73
2021/03/22 05:14:07;;;;;;;1.17;0.40;;;;;;;-140.79;100.00;63287.88;4961381;28;20033;-74
2021/03/22 05:16:33;;;;;;;0.73;0.40;;;;;;;-140.79;100.00;63287.88;4962719;28;20407;-74
2021/03/22 05:18:58;;;;;;;1.00;0.50;;;;;;;-140.79;100.00;63287.88;4950153;28;20022;-75
2021/03/22 05:21:24;;;;;;;0.60;0.30;;;;;;;-140.79;100.00;63287.88;4968373;28;20027;-74
2021/03/22 05:23:49;;;;;;;1.38;0.50;;;;;;;-140.79;100.00;63287.88;4969411;28;20035;-75
2021/03/22 05:26:15;;;;;;;0.43;0.40;;;;;;;-140.79;100.00;63287.88;4976407;28;20038;-72
2021/03/22 05:28:41;;;;;;;0.75;0.50;;;;;;;-140.79;100.00;63287.88;4948928;28;20037;-71
2021/03/22 05:31:07;;;;;;;0.77;0.40;;;;;;;-140.79;100.00;63287.88;4980895;28;20030;-71
2021/03/22 05:33:32;;;;;;;1.10;0.50;;;;;;;-140.79;100.00;63287.88;4986168;28;20034;-71
2021/03/22 05:35:59;;;;;;;1.35;0.40;;;;;;;-140.79;100.00;63287.88;4988513;28;20033;-71
2021/03/22 05:38:25;;;;;;;1.23;0.57;;;;;;;-140.79;100.00;63287.88;4954434;28;20114;-71
2021/03/22 05:41:21;;;;;;;0.77;0.50;;;;;;;-140.79;100.00;63287.88;4952481;28;20034;-75
2021/03/22 05:43:51;;;;;;;1.20;0.50;;;;;;;-140.79;100.00;63287.88;4965980;28;20458;-74
2021/03/22 05:46:17;;;;;;;0.60;0.40;;;;;;;-140.79;100.00;63287.88;4959438;28;20065;-72
2021/03/22 05:48:58;;;;;;;0.80;0.50;;;;;;;-140.79;100.00;63287.88;4971967;28;20118;-72
2021/03/22 05:51:48;;;;;;;1.55;0.60;;;;;;;-140.79;100.00;63287.88;4962797;28;20030;-72
2021/03/22 05:54:14;;;;;;;1.60;0.50;;;;;;;-140.79;100.00;63287.88;4980597;28;20030;-71
2021/03/22 05:57:12;;;;;;;0.82;0.40;;;;;;;-140.79;100.00;63287.88;4982569;28;20064;-71
2021/03/22 05:59:43;;;;;;;1.00;0.50;;;;;;;-140.79;100.00;63287.88;4962613;28;20440;-71
2021/03/22 06:02:14;;;;;;;1.02;0.47;;;;;;;-140.79;100.00;63287.88;4985594;28;20424;-72
2021/03/22 06:04:49;;;;;;;0.68;0.40;;;;;;;-140.79;100.00;63287.88;4965771;28;20082;-72
2021/03/22 06:07:22;;;;;;;0.77;0.40;;;;;;;-140.79;100.00;63287.88;4988191;28;20109;-71
2021/03/22 06:10:02;;;;;;;1.30;0.47;;;;;;;-140.79;100.00;63287.88;4970900;28;20081;-73
2021/03/22 06:12:27;;;;;;;1.48;0.95;;;;;;;-140.79;100.00;63287.88;4964280;28;20033;-74
2021/03/22 06:15:00;;;;;;;0.73;0.30;;;;;;;-140.79;100.00;63287.88;4972541;28;20038;-73
2021/03/22 06:17:32;;;;;;;0.90;0.50;;;;;;;-140.79;100.00;63287.88;4982211;28;20396;-74
2021/03/22 06:19:59;;;;;;;1.10;0.40;;;;;;;-140.79;100.00;63287.88;4981797;28;20035;-75
2021/03/22 06:22:26;;;;;;;0.73;0.40;;;;;;;-140.79;100.00;63287.88;4956153;28;20023;-73
2021/03/22 06:24:52;;;;;;;0.68;0.40;;;;;;;-140.79;100.00;63287.88;4969505;28;20081;-71
2021/03/22 06:27:17;;;;;;;0.93;0.43;;;;;;;-140.79;100.00;63287.88;4970209;28;20034;-75
2021/03/22 06:29:43;;;;;;;1.10;0.40;;;;;;;-140.79;100.00;63287.88;4969773;28;20026;-74
2021/03/22 06:32:21;;;;;;;0.77;0.45;;;;;;;-140.79;100.00;63287.88;4988293;28;20530;-74
2021/03/22 06:34:57;;;;;;;0.90;0.50;;;;;;;-140.79;100.00;63287.88;4970871;28;20034;-73
2021/03/22 06:37:28;;;;;;;0.93;0.40;;;;;;;-140.79;100.00;63287.88;4980528;28;20037;-74
2021/03/22 06:40:07;;;;;;;0.80;0.47;;;;;;;-140.79;100.00;63287.88;4965903;28;20022;-74
2021/03/22 06:42:33;;;;;;;0.70;0.50;;;;;;;-140.79;100.00;63287.88;4940120;28;20034;-72
2021/03/22 06:44:58;;;;;;;0.88;0.47;;;;;;;-140.79;100.00;63287.88;4952304;28;20430;-72
2021/03/22 06:47:31;;;;;;;2.35;0.60;;;;;;;-140.79;100.00;63287.88;4968302;28;20534;-71
2021/03/22 06:50:28;;;;;;;1.17;0.50;;;;;;;-140.79;100.00;63287.88;4964992;28;20483;-71
2021/03/22 06:52:53;;;;;;;0.60;0.43;;;;;;;-140.79;100.00;63287.88;4962321;28;20033;-73
2021/03/22 06:55:39;;;;;;;0.90;0.50;;;;;;;-140.79;100.00;63287.88;4974835;28;20039;-72
2021/03/22 06:58:05;;;;;;;0.90;0.60;;;;;;;-140.79;100.00;63287.88;4976653;28;20478;-71
2021/03/22 07:00:31;;;;;;;1.40;0.70;;;;;;;-140.79;100.00;63287.88;4982641;28;20125;-73
2021/03/22 07:02:58;;;;;;;1.05;0.55;;;;;;;-140.79;100.00;63287.88;4981378;28;20097;-72
2021/03/22 07:05:39;;;;;;;1.02;0.60;;;;;;;-140.79;100.00;63287.88;4978589;28;20060;-72
2021/03/22 07:08:10;;;;;;;1.00;0.57;;;;;;;-140.79;100.00;63287.88;4959698;28;20513;-72
2021/03/22 07:11:05;;;;;;;2.97;0.70;;;;;;;-140.79;100.00;63287.88;4983968;28;20077;-72
2021/03/22 07:13:31;;;;;;;1.42;0.70;;;;;;;-140.79;100.00;63287.88;4977986;28;20495;-73
2021/03/22 07:16:20;;;;;;;1.38;0.70;;;;;;;-140.79;100.00;63287.88;4970232;28;20037;-75
2021/03/22 07:19:07;;;;;;;0.95;0.68;;;;;;;-140.79;100.00;63287.88;4954478;28;20468;-74
2021/03/22 07:21:33;;;;;;;1.00;0.52;;;;;;;-140.79;100.00;63287.88;4974894;28;20033;-76
2021/03/22 07:24:11;;;;;;;1.10;0.60;;;;;;;-140.79;100.00;63287.88;4961461;28;20060;-73
2021/03/22 07:26:46;;;;;;;1.70;1.05;;;;;;;-140.79;100.00;63287.88;4963261;28;20599;-73
2021/03/22 07:30:08;;;;;;;1.92;0.80;;;;;;;-140.79;100.00;63287.88;4977508;28;20080;-75
2021/03/22 07:32:49;;;;;;;1.38;0.90;;;;;;;-140.79;100.00;63287.88;4919475;29;20049;-72
2021/03/22 07:35:27;;;;;;;1.40;0.90;;;;;;;-140.79;100.00;63287.88;4918858;29;20097;-73
2021/03/22 07:38:05;;;;;;;1.67;1.00;;;;;;;-140.79;100.00;63287.88;4955325;28;20049;-70
2021/03/22 07:40:40;;;;;;;1.38;0.93;;;;;;;-140.79;100.00;63287.88;4982991;28;20026;-73
2021/03/22 07:43:23;;;;;;;1.40;1.00;;;;;;;-140.79;100.00;63287.88;4978277;28;20030;-71
2021/03/22 07:45:57;;;;;;;1.40;0.90;;;;;;;-140.79;100.00;63287.88;4983538;28;20050;-71
2021/03/22 07:49:07;;;;;;;2.05;0.93;;;;;;;-140.79;100.00;63287.88;4977707;28;20125;-71
2021/03/22 07:52:05;;;;;;;1.40;0.88;;;;;;;-140.79;100.00;63287.88;4886616;29;20029;-72
2021/03/22 07:55:08;;;;;;;1.75;0.90;;;;;;;-140.79;100.00;63287.88;4972397;28;20042;-71
2021/03/22 07:57:35;;;;;;;1.55;0.90;;;;;;;-140.79;100.00;63287.88;4983222;28;20030;-72
2021/03/22 08:00:10;;;;;;;1.67;1.00;;;;;;;-140.79;100.00;63287.88;4981738;28;20069;-73
2021/03/22 08:02:41;;;;;;;1.55;1.17;;;;;;;-140.79;100.00;63287.88;4982640;28;20062;-72
2021/03/22 08:05:28;;;;;;;1.42;1.05;;;;;;;-140.79;100.00;63287.88;4976389;28;20046;-71
2021/03/22 08:08:15;;;;;;;1.65;1.10;;;;;;;-140.79;100.00;63287.88;4978868;28;20035;-71
2021/03/22 08:11:15;;;;;;;1.40;0.90;;;;;;;-140.79;100.00;63287.88;4974699;28;20448;-71
2021/03/22 08:13:40;;;;;;;2.25;1.00;;;;;;;-140.79;100.00;63287.88;4977791;28;20034;-72
2021/03/22 08:16:38;;;;;;;1.63;1.10;;;;;;;-140.79;100.00;63287.88;4986486;28;20146;-72
2021/03/22 08:19:07;;;;;;;1.70;0.98;;;;;;;-140.79;100.00;63287.88;4976262;28;20048;-71
2021/03/22 08:21:46;;;;;;;1.48;1.10;;;;;;;-140.79;100.00;63287.88;4984479;28;20030;-72
2021/03/22 08:24:39;;;;;;;2.13;1.20;;;;;;;-140.79;100.00;63287.88;4973952;28;20495;-72
2021/03/22 08:27:12;;;;;;;1.90;1.20;;;;;;;-140.79;100.00;63287.88;4963587;28;20057;-71
2021/03/22 08:29:50;;;;;;;2.60;1.00;;;;;;;-140.79;100.00;63287.88;4964107;28;20132;-71
2021/03/22 08:32:25;;;;;;;1.50;1.00;;;;;;;-140.79;100.00;63287.88;4960230;28;20031;-71
2021/03/22 08:35:15;;;;;;;1.58;0.90;;;;;;;-140.79;100.00;63287.88;4914699;28;20043;-72
2021/03/22 08:37:54;;;;;;;1.45;0.90;;;;;;;-140.79;100.00;63287.88;4935922;28;20394;-73
2021/03/22 08:40:43;;;;;;;1.60;1.00;;;;;;;-140.79;100.00;63287.88;4951080;28;20115;-72
2021/03/22 08:43:31;;;;;;;1.60;1.03;;;;;;;-140.79;100.00;63287.88;4972224;28;20035;-72
2021/03/22 08:46:03;;;;;;;2.00;1.00;;;;;;;-140.79;100.00;63287.88;4971727;28;20038;-72
2021/03/22 08:48:29;;;;;;;2.15;1.05;;;;;;;-140.79;100.00;63287.88;4960909;28;20425;-72
2021/03/22 08:50:55;;;;;;;1.75;1.00;;;;;;;-140.79;100.00;63287.88;4979676;28;20085;-72
2021/03/22 08:53:23;;;;;;;2.00;0.80;;;;;;;-140.79;100.00;63287.88;4962099;28;20569;-72
2021/03/22 08:55:51;;;;;;;1.65;1.00;;;;;;;-140.79;100.00;63287.88;4965322;28;20037;-72
2021/03/22 08:58:45;;;;;;;1.75;0.93;;;;;;;-140.79;100.00;63287.88;4948460;28;20038;-73
2021/03/22 09:01:19;;;;;;;1.48;1.17;;;;;;;-140.79;100.00;63287.88;4946955;29;20054;-73
2021/03/22 09:03:45;;;;;;;1.38;0.98;;;;;;;-140.79;100.00;63287.88;4934539;29;20520;-72
2021/03/22 09:06:25;;;;;;;1.92;1.05;;;;;;;-140.79;100.00;63287.88;4961327;28;20051;-72
2021/03/22 09:08:50;;;;;;;1.87;1.00;;;;;;;-140.79;100.00;63287.88;4948036;28;20035;-72
2021/03/22 09:11:28;;;;;;;1.75;0.90;;;;;;;-140.79;100.00;63287.88;4949534;28;20042;-72
2021/03/22 09:13:57;;;;;;;1.70;0.93;;;;;;;-140.79;100.00;63287.88;4956855;28;20089;-72
2021/03/22 09:16:22;;;;;;;1.90;1.13;;;;;;;-140.79;100.00;63287.88;4979041;28;20028;-72
2021/03/22 09:19:09;;;;;;;3.05;2.00;;;;;;;-140.79;100.00;63287.88;4965170;28;20093;-72
2021/03/22 09:21:35;;;;;;;3.97;2.00;;;;;;;-140.79;100.00;63287.88;4962497;28;20039;-72
2021/03/22 09:24:01;;;;;;;2.08;1.20;;;;;;;-140.79;100.00;63287.88;4952265;28;20035;-72
2021/03/22 09:26:51;;;;;;;1.92;1.13;;;;;;;-140.79;100.00;63287.88;4951779;28;20035;-73
2021/03/22 09:29:32;;;;;;;4.22;2.45;;;;;;;-140.79;100.00;63287.88;4953030;28;20038;-72
2021/03/22 09:31:59;;;;;;;3.20;1.60;;;;;;;-140.79;100.00;63287.88;4952910;28;20034;-70
2021/03/22 09:34:38;;;;;;;2.88;1.48;;;;;;;-140.79;100.00;63287.88;4935867;28;20039;-71
2021/03/22 09:37:42;;;;;;;1.85;1.15;;;;;;;-140.79;100.00;63287.88;4952742;29;20504;-72
2021/03/22 09:40:11;;;;;;;3.08;1.15;;;;;;;-140.79;100.00;63287.88;4966460;28;20287;-70
2021/03/22 09:42:36;;;;;;;2.15;1.13;;;;;;;-140.79;100.00;63287.88;4954824;28;20036;-70
2021/03/22 09:45:19;;;;;;;3.40;1.50;;;;;;;-140.79;100.00;63287.88;4950537;28;20097;-71
2021/03/22 09:47:45;;;;;;;2.10;1.25;;;;;;;-140.79;100.00;63287.88;4948291;29;20196;-71
2021/03/22 09:50:22;;;;;;;1.80;1.23;;;;;;;-140.79;100.00;63287.88;4954030;28;20031;-70
2021/03/22 09:52:51;;;;;;;2.15;1.08;;;;;;;-140.79;100.00;63287.88;4967746;28;20031;-71
2021/03/22 09:55:25;;;;;;;2.38;1.13;;;;;;;-140.79;100.00;63287.88;4962230;28;20417;-71
2021/03/22 09:57:51;;;;;;;2.58;1.33;;;;;;;-140.79;100.00;63287.88;4962762;28;20038;-70
2021/03/22 10:00:48;;;;;;;2.58;1.40;;;;;;;-140.79;100.00;63287.88;4949333;28;20062;-72
2021/03/22 10:03:28;;;;;;;1.98;1.20;;;;;;;-140.79;100.00;63287.88;4954897;28;20044;-70
2021/03/22 10:05:56;;;;;;;2.60;1.35;;;;;;;-140.79;100.00;63287.88;4956647;28;20435;-73
2021/03/22 10:08:26;;;;;;;2.38;1.38;;;;;;;-140.79;100.00;63287.88;4965565;28;20029;-72
2021/03/22 10:10:54;;;;;;;1.67;1.10;;;;;;;-140.79;100.00;63287.88;4965049;28;20035;-71
2021/03/22 10:13:22;;;;;;;2.95;1.80;;;;;;;-140.79;100.00;63287.88;4947839;28;20063;-71
2021/03/22 10:15:54;;;;;;;2.85;1.30;;;;;;;-140.79;100.00;63287.88;4949290;28;20038;-72
2021/03/22 10:18:22;;;;;;;2.35;1.00;;;;;;;-140.79;100.00;63287.88;4930719;28;20078;-72
2021/03/22 10:20:50;;;;;;;2.75;1.00;;;;;;;-140.79;100.00;63287.88;4953818;28;20038;-72
2021/03/22 10:23:47;;;;;;;2.17;1.08;;;;;;;-140.79;100.00;63287.88;4950811;28;20027;-71
2021/03/22 10:26:25;;;;;;;1.45;1.00;;;;;;;-140.79;100.00;63287.88;4944634;28;20043;-71
2021/03/22 10:28:52;;;;;;;2.53;1.45;;;;;;;-140.79;100.00;63287.88;4950436;28;20035;-72
2021/03/22 10:31:22;;;;;;;3.33;1.00;;;;;;;-140.79;100.00;63287.88;4946505;28;20071;-72
2021/03/22 10:34:00;;;;;;;2.53;1.20;;;;;;;-140.79;100.00;63287.88;4945061;28;20503;-72
2021/03/22 10:36:38;;;;;;;3.50;1.10;;;;;;;-140.79;100.00;63287.88;4952219;28;20031;-72
2021/03/22 10:39:12;;;;;;;1.55;0.90;;;;;;;-140.79;100.00;63287.88;4960095;28;20495;-72
2021/03/22 10:41:41;;;;;;;2.30;1.15;;;;;;;-140.79;100.00;63287.88;4960143;28;20040;-71
2021/03/22 10:44:13;;;;;;;1.88;1.00;;;;;;;-140.79;100.00;63287.88;4955627;28;20081;-73
2021/03/22 10:46:38;;;;;;;2.20;1.05;;;;;;;-140.79;100.00;63287.88;4944058;28;20505;-72
2021/03/22 10:49:23;;;;;;;1.90;1.05;;;;;;;-140.79;100.00;63287.88;4961270;28;20030;-71
2021/03/22 10:51:51;;;;;;;1.38;0.95;;;;;;;-140.79;100.00;63287.88;4944489;28;20563;-71
2021/03/22 10:54:19;;;;;;;1.45;0.85;;;;;;;-140.79;100.00;63287.88;4959607;28;20471;-71
2021/03/22 10:56:44;;;;;;;3.28;1.17;;;;;;;-140.79;100.00;63287.88;4943103;28;20089;-72
2021/03/22 10:59:18;;;;;;;13.65;1.63;;;;;;;-140.79;100.00;63287.88;4958706;28;20043;-73
2021/03/22 11:01:43;;;;;;;5.28;1.35;;;;;;;-140.79;100.00;63287.88;4948701;28;20042;-71
2021/03/22 11:04:33;;;;;;;3.03;1.20;;;;;;;-140.79;100.00;63287.88;4947540;28;20047;-71
2021/03/22 11:06:58;;;;;;;2.60;1.20;;;;;;;-140.79;100.00;63287.88;4950686;28;20031;-71
2021/03/22 11:09:27;;;;;;;3.33;1.30;;;;;;;-140.79;100.00;63287.88;4931186;29;20511;-72
2021/03/22 11:11:52;;;;;;;1.92;1.10;;;;;;;-140.79;100.00;63287.88;4944709;28;20035;-70
2021/03/22 11:14:20;;;;;;;1.70;1.10;;;;;;;-140.79;100.00;63287.88;4947595;28;20443;-72
2021/03/22 11:16:46;;;;;;;2.22;1.05;;;;;;;-140.79;100.00;63287.88;4931248;28;20031;-71
2021/03/22 11:19:26;;;;;;;2.80;1.20;;;;;;;-140.79;100.00;63287.88;4931566;29;20043;-74
2021/03/22 11:21:53;;;;;;;3.90;1.15;;;;;;;-140.79;100.00;63287.88;4964232;28;20066;-71
2021/03/22 11:24:39;;;;;;;3.25;1.15;;;;;;;-140.79;100.00;63287.88;4951975;28;20488;-72
2021/03/22 11:27:06;;;;;;;3.20;1.20;;;;;;;-140.79;100.00;63287.88;4948797;28;20576;-72
2021/03/22 11:29:32;;;;;;;3.33;1.15;;;;;;;-140.79;100.00;63287.88;4951642;28;20027;-73
2021/03/22 11:32:05;;;;;;;2.10;1.08;;;;;;;-140.79;100.00;63287.88;4964705;28;20035;-72